Time;durP1;ratioP1;P1;durP2;ratioP2;P2;SDS_P1;SDS_P2;PMS_P1;PMS_P2;Temp;Humidity;BMP_temperature;BMP_pressure;BME280_temperature;BME280_humidity;BME280_pressure;Samples;Min_cycle;Max_cycle;Signal;HPM_P1;HPM_P2
2023/05/25 00:02:03;;;;;;;3.30;1.35;;;20.50;60.90;;;;;;5054068;28;20137;-70
2023/05/25 00:04:33;;;;;;;5.32;1.70;;;20.40;60.80;;;;;;5053748;28;20044;-69
2023/05/25 00:07:01;;;;;;;4.57;1.35;;;20.50;60.90;;;;;;5054225;28;20055;-69
2023/05/25 00:09:27;;;;;;;4.43;1.48;;;20.40;60.90;;;;;;5054619;28;20057;-69
2023/05/25 00:11:53;;;;;;;3.65;1.40;;;20.40;60.80;;;;;;5054255;28;20394;-69
2023/05/25 00:14:18;;;;;;;6.07;1.65;;;20.40;60.80;;;;;;5054274;28;20090;-69
2023/05/25 00:16:47;;;;;;;4.30;1.45;;;20.40;60.80;;;;;;5054111;28;20049;-69
2023/05/25 00:19:13;;;;;;;3.97;1.33;;;20.40;60.80;;;;;;5053518;28;20485;-69
2023/05/25 00:21:40;;;;;;;3.42;1.30;;;20.40;60.80;;;;;;5054598;28;20037;-69
2023/05/25 00:24:05;;;;;;;4.75;1.73;;;20.40;60.80;;;;;;5090125;28;20048;-69
2023/05/25 00:26:31;;;;;;;4.13;1.60;;;20.40;61.40;;;;;;5094001;28;20044;-69
2023/05/25 00:28:59;;;;;;;5.65;1.73;;;20.40;60.80;;;;;;5094813;28;20047;-69
2023/05/25 00:31:25;;;;;;;3.40;1.50;;;20.40;60.80;;;;;;5093854;28;20407;-69
2023/05/25 00:33:50;;;;;;;2.50;1.08;;;20.40;60.80;;;;;;5093629;28;20555;-69
2023/05/25 00:36:16;;;;;;;3.20;1.20;;;20.30;60.70;;;;;;5092915;28;20113;-69
2023/05/25 00:38:41;;;;;;;5.10;1.63;;;20.30;60.80;;;;;;5094484;28;20040;-69
2023/05/25 00:41:07;;;;;;;2.55;1.42;;;20.30;60.70;;;;;;5093703;28;20043;-69
2023/05/25 00:43:32;;;;;;;4.45;1.60;;;20.30;60.80;;;;;;5094422;28;20054;-69
2023/05/25 00:45:58;;;;;;;3.20;1.35;;;20.30;60.80;;;;;;5094159;28;20044;-69
2023/05/25 00:48:27;;;;;;;3.72;1.52;;;20.30;60.80;;;;;;5093176;28;20055;-69
2023/05/25 00:50:56;;;;;;;3.53;1.27;;;20.30;60.70;;;;;;5093914;28;20068;-69
2023/05/25 00:53:22;;;;;;;4.22;1.60;;;20.30;60.80;;;;;;5092263;28;20052;-69
2023/05/25 00:55:57;;;;;;;3.53;1.20;;;20.30;60.70;;;;;;5092198;28;20052;-70
2023/05/25 00:58:23;;;;;;;3.70;1.30;;;20.30;60.70;;;;;;5092683;28;20071;-70
2023/05/25 01:00:49;;;;;;;4.20;1.58;;;20.30;60.80;;;;;;5092935;28;20047;-70
2023/05/25 01:03:16;;;;;;;4.85;1.20;;;20.30;60.70;;;;;;5092197;28;20047;-70
2023/05/25 01:05:44;;;;;;;3.83;1.40;;;20.30;60.70;;;;;;5092789;28;20115;-69
2023/05/25 01:08:09;;;;;;;3.22;1.33;;;20.30;60.80;;;;;;5091699;28;20039;-70
2023/05/25 01:10:35;;;;;;;4.20;1.35;;;20.20;60.70;;;;;;5089669;28;20048;-69
2023/05/25 01:13:01;;;;;;;3.83;1.60;;;20.20;60.70;;;;;;5055946;28;20055;-69
2023/05/25 01:15:28;;;;;;;3.80;1.48;;;20.20;60.60;;;;;;5072507;28;20198;-69
2023/05/25 01:17:58;;;;;;;2.85;1.15;;;20.20;60.60;;;;;;5071548;28;20426;-69
2023/05/25 01:20:26;;;;;;;3.08;1.42;;;20.20;60.70;;;;;;5055896;28;20040;-69
2023/05/25 01:23:01;;;;;;;2.92;1.02;;;20.20;60.70;;;;;;5071126;28;20515;-69
2023/05/25 01:25:35;;;;;;;3.80;1.17;;;20.20;60.70;;;;;;5073217;28;20062;-69
2023/05/25 01:28:04;;;;;;;4.40;1.50;;;20.20;60.60;;;;;;5055180;28;20056;-69
2023/05/25 01:30:30;;;;;;;3.33;1.27;;;20.20;60.70;;;;;;5071034;28;20045;-69
2023/05/25 01:32:55;;;;;;;3.20;1.40;;;20.20;60.70;;;;;;5073177;28;20045;-69
2023/05/25 01:35:21;;;;;;;2.97;1.17;;;20.20;60.60;;;;;;5073010;28;20127;-69
2023/05/25 01:37:47;;;;;;;4.63;1.60;;;20.20;60.70;;;;;;5054217;28;20071;-69
2023/05/25 01:40:13;;;;;;;2.97;1.23;;;20.20;60.60;;;;;;5072617;28;20098;-69
2023/05/25 01:42:39;;;;;;;3.05;1.20;;;20.20;60.70;;;;;;5072248;28;20045;-69
2023/05/25 01:45:05;;;;;;;3.03;1.17;;;20.20;60.70;;;;;;5073009;28;20047;-69
2023/05/25 01:47:37;;;;;;;3.72;1.17;;;20.20;60.70;;;;;;5070941;28;20045;-69
2023/05/25 01:50:06;;;;;;;5.43;1.70;;;20.20;60.70;;;;;;5072002;28;20040;-70
2023/05/25 01:52:35;;;;;;;3.60;1.33;;;20.10;60.70;;;;;;5054965;28;20044;-69
2023/05/25 01:55:06;;;;;;;4.80;1.50;;;20.10;60.60;;;;;;5054862;28;20605;-69
2023/05/25 01:57:36;;;;;;;2.90;1.15;;;20.10;60.60;;;;;;5070840;28;20040;-69
2023/05/25 02:00:02;;;;;;;3.30;1.17;;;20.10;60.60;;;;;;5072719;28;20120;-69
2023/05/25 02:02:27;;;;;;;2.70;1.30;;;20.10;60.60;;;;;;5069687;28;20127;-69
2023/05/25 02:04:56;;;;;;;3.85;1.50;;;20.10;60.60;;;;;;5071687;28;20039;-69
2023/05/25 02:07:22;;;;;;;4.03;1.38;;;20.10;60.60;;;;;;5071784;28;20403;-69
2023/05/25 02:09:47;;;;;;;3.00;1.13;;;20.10;60.60;;;;;;5072378;28;20041;-70
2023/05/25 02:12:13;;;;;;;3.63;1.30;;;20.10;60.60;;;;;;5078226;28;20044;-70
2023/05/25 02:14:38;;;;;;;2.95;1.35;;;20.10;60.60;;;;;;5092802;28;20454;-70
2023/05/25 02:17:04;;;;;;;2.45;0.90;;;20.10;60.50;;;;;;5092505;28;20055;-70
2023/05/25 02:19:30;;;;;;;3.30;1.48;;;20.00;60.50;;;;;;5090221;28;20044;-70
2023/05/25 02:21:55;;;;;;;3.38;1.30;;;20.10;60.50;;;;;;5092324;28;20044;-70
2023/05/25 02:24:23;;;;;;;3.17;1.25;;;20.10;60.60;;;;;;5091932;28;20040;-70
2023/05/25 02:26:49;;;;;;;2.50;1.10;;;20.10;60.50;;;;;;5091745;28;20064;-70
2023/05/25 02:29:15;;;;;;;3.72;1.40;;;20.00;60.50;;;;;;5092164;28;20460;-70
2023/05/25 02:31:40;;;;;;;3.50;1.20;;;20.00;60.50;;;;;;5092036;28;20487;-69
2023/05/25 02:34:06;;;;;;;2.20;1.00;;;20.00;60.50;;;;;;5091294;28;20079;-70
2023/05/25 02:36:33;;;;;;;2.60;1.38;;;20.00;60.50;;;;;;5092260;28;20040;-70
2023/05/25 02:38:59;;;;;;;3.65;1.20;;;20.00;60.40;;;;;;5091753;28;20093;-70
2023/05/25 02:41:25;;;;;;;4.55;1.10;;;20.00;60.50;;;;;;5092059;28;20040;-69
2023/05/25 02:43:50;;;;;;;3.65;1.48;;;20.00;60.40;;;;;;5092392;28;20130;-69
2023/05/25 02:46:16;;;;;;;3.03;1.40;;;20.00;60.50;;;;;;5089911;28;20040;-70
2023/05/25 02:48:42;;;;;;;2.95;1.25;;;20.00;60.40;;;;;;5091283;28;20055;-69
2023/05/25 02:51:08;;;;;;;2.97;1.13;;;20.00;60.40;;;;;;5091901;28;20481;-69
2023/05/25 02:53:33;;;;;;;3.63;1.23;;;20.00;60.40;;;;;;5091526;28;20036;-69
2023/05/25 02:56:00;;;;;;;3.92;1.30;;;20.00;60.50;;;;;;5090741;28;20051;-69
2023/05/25 02:58:27;;;;;;;3.67;1.40;;;20.00;60.40;;;;;;5090901;28;20071;-69
2023/05/25 03:00:53;;;;;;;3.28;1.10;;;19.90;60.40;;;;;;5091190;28;20051;-69
2023/05/25 03:03:19;;;;;;;3.25;1.30;;;19.90;60.40;;;;;;5091892;28;20044;-69
2023/05/25 03:05:44;;;;;;;3.65;1.48;;;19.90;60.40;;;;;;5092235;28;20056;-69
2023/05/25 03:08:10;;;;;;;2.75;1.00;;;19.90;60.40;;;;;;5090732;28;20040;-69
2023/05/25 03:10:35;;;;;;;4.15;1.10;;;19.90;60.40;;;;;;5091943;28;20097;-68
2023/05/25 03:13:01;;;;;;;3.10;1.13;;;19.90;60.40;;;;;;5092870;28;20487;-69
2023/05/25 03:15:27;;;;;;;4.45;1.13;;;19.90;60.40;;;;;;5095088;28;20044;-69
2023/05/25 03:17:55;;;;;;;2.50;1.10;;;19.90;60.40;;;;;;5095995;28;20036;-69
2023/05/25 03:20:23;;;;;;;4.10;1.27;;;19.90;60.30;;;;;;5095971;28;20040;-68
2023/05/25 03:22:49;;;;;;;3.90;1.30;;;19.90;60.30;;;;;;5093518;28;20052;-69
2023/05/25 03:25:14;;;;;;;3.35;1.13;;;19.90;60.20;;;;;;5095923;28;20050;-69
2023/05/25 03:27:40;;;;;;;2.90;1.15;;;19.90;60.20;;;;;;5095660;28;20139;-69
2023/05/25 03:30:06;;;;;;;2.97;0.90;;;20.00;60.30;;;;;;5094858;28;20471;-69
2023/05/25 03:32:32;;;;;;;3.42;1.17;;;20.00;60.30;;;;;;5095313;28;20044;-69
2023/05/25 03:34:58;;;;;;;3.08;0.98;;;19.90;60.30;;;;;;5095810;28;20051;-69
2023/05/25 03:37:23;;;;;;;3.88;1.00;;;20.00;60.30;;;;;;5094286;28;20081;-69
2023/05/25 03:39:49;;;;;;;3.20;1.05;;;20.00;60.30;;;;;;5094271;28;20047;-69
2023/05/25 03:42:14;;;;;;;3.47;1.13;;;20.00;60.30;;;;;;5094449;28;20139;-69
2023/05/25 03:44:40;;;;;;;2.70;1.08;;;20.00;60.30;;;;;;5095394;28;20079;-69
2023/05/25 03:47:06;;;;;;;3.53;1.13;;;20.00;60.30;;;;;;5094852;28;20040;-69
2023/05/25 03:49:31;;;;;;;2.38;1.00;;;20.00;60.30;;;;;;5094067;28;20509;-69
2023/05/25 03:52:00;;;;;;;3.38;0.90;;;20.00;60.30;;;;;;5093432;28;20093;-69
2023/05/25 03:54:25;;;;;;;4.00;1.20;;;20.00;60.30;;;;;;5094801;28;20483;-68
2023/05/25 03:56:51;;;;;;;2.80;1.02;;;20.00;60.30;;;;;;5093390;28;20055;-69
2023/05/25 03:59:17;;;;;;;2.70;1.00;;;20.00;60.30;;;;;;5095030;28;20515;-69
2023/05/25 04:01:43;;;;;;;2.97;1.08;;;20.00;60.30;;;;;;5072536;28;20052;-69
2023/05/25 04:04:08;;;;;;;3.15;1.10;;;20.00;60.40;;;;;;5067260;28;20045;-69
2023/05/25 04:06:36;;;;;;;2.58;0.98;;;20.00;60.40;;;;;;5072519;28;20044;-68
2023/05/25 04:09:03;;;;;;;4.18;1.17;;;20.10;60.50;;;;;;5073395;28;20048;-69
2023/05/25 04:11:29;;;;;;;4.10;1.30;;;20.00;60.30;;;;;;5073600;28;20044;-69
2023/05/25 04:13:54;;;;;;;2.25;1.15;;;20.10;60.40;;;;;;5074848;28;20314;-69
2023/05/25 04:16:20;;;;;;;3.13;1.10;;;20.10;60.40;;;;;;5072988;28;20040;-69
2023/05/25 04:18:46;;;;;;;3.03;1.05;;;20.10;60.40;;;;;;5072848;28;20454;-69
2023/05/25 04:21:11;;;;;;;2.85;1.10;;;20.10;60.40;;;;;;5074162;28;20071;-68
2023/05/25 04:23:37;;;;;;;4.20;1.08;;;20.10;60.40;;;;;;5074590;28;20048;-69
2023/05/25 04:26:04;;;;;;;3.30;1.10;;;20.10;60.50;;;;;;5072940;28;20036;-69
2023/05/25 04:28:31;;;;;;;2.70;1.25;;;20.10;60.40;;;;;;5074051;28;20377;-69
2023/05/25 04:30:56;;;;;;;2.90;1.05;;;20.10;60.30;;;;;;5074137;28;20040;-69
2023/05/25 04:33:23;;;;;;;2.78;1.30;;;20.20;60.30;;;;;;5073473;28;20403;-69
2023/05/25 04:35:49;;;;;;;3.83;1.40;;;20.20;60.30;;;;;;5072943;28;20040;-69
2023/05/25 04:38:16;;;;;;;2.88;1.30;;;20.20;60.30;;;;;;5073867;28;20055;-68
2023/05/25 04:40:42;;;;;;;3.13;1.30;;;20.20;60.20;;;;;;5092367;28;20047;-69
2023/05/25 04:43:10;;;;;;;2.40;1.20;;;20.20;60.10;;;;;;5092216;28;20044;-69
2023/05/25 04:45:35;;;;;;;3.10;1.50;;;20.20;60.00;;;;;;5092283;28;20055;-69
2023/05/25 04:48:01;;;;;;;3.60;1.35;;;20.30;60.00;;;;;;5092817;28;20056;-69
2023/05/25 04:50:27;;;;;;;2.85;1.00;;;20.30;60.00;;;;;;5094267;28;20246;-69
2023/05/25 04:52:53;;;;;;;2.40;0.90;;;20.30;60.00;;;;;;5091971;28;20775;-69
2023/05/25 04:55:18;;;;;;;2.50;0.90;;;20.30;60.00;;;;;;5094066;28;20475;-69
2023/05/25 04:57:44;;;;;;;2.28;0.93;;;20.40;60.00;;;;;;5081139;28;20058;-69
2023/05/25 05:00:11;;;;;;;2.63;1.00;;;20.30;59.90;;;;;;5071874;28;20047;-69
2023/05/25 05:02:36;;;;;;;2.92;1.10;;;20.40;60.00;;;;;;5072571;28;20106;-69
2023/05/25 05:05:02;;;;;;;2.80;1.10;;;20.40;60.00;;;;;;5073934;28;20048;-70
2023/05/25 05:07:28;;;;;;;2.88;1.20;;;20.40;60.00;;;;;;5072736;28;20045;-69
2023/05/25 05:09:53;;;;;;;3.47;1.05;;;20.40;59.90;;;;;;5073908;28;20075;-70
2023/05/25 05:12:19;;;;;;;3.45;0.90;;;20.40;59.90;;;;;;5073144;28;20546;-69
2023/05/25 05:14:45;;;;;;;3.40;0.98;;;20.40;60.00;;;;;;5072558;28;20086;-70
2023/05/25 05:17:11;;;;;;;3.05;1.10;;;20.40;60.00;;;;;;5072830;28;20048;-70
2023/05/25 05:19:37;;;;;;;3.08;1.35;;;20.40;60.00;;;;;;5071179;28;20036;-70
2023/05/25 05:22:02;;;;;;;3.58;1.10;;;20.40;60.00;;;;;;5065005;28;20045;-69
2023/05/25 05:24:28;;;;;;;2.85;1.00;;;20.40;60.00;;;;;;5062174;28;20076;-70
2023/05/25 05:26:53;;;;;;;3.72;0.95;;;20.40;60.00;;;;;;5057262;28;20106;-69
2023/05/25 05:29:19;;;;;;;3.03;1.15;;;20.40;60.00;;;;;;5052304;28;20049;-69
2023/05/25 05:31:45;;;;;;;3.20;1.13;;;20.40;60.00;;;;;;5070464;28;20112;-70
2023/05/25 05:34:10;;;;;;;3.55;1.20;;;20.40;60.00;;;;;;5072935;28;20040;-69
2023/05/25 05:36:36;;;;;;;2.85;1.10;;;20.50;60.10;;;;;;5072108;28;20040;-70
2023/05/25 05:39:02;;;;;;;1.73;1.00;;;20.50;60.20;;;;;;5055388;28;20049;-69
2023/05/25 05:41:27;;;;;;;3.30;1.10;;;20.50;60.20;;;;;;5060731;28;20044;-70
2023/05/25 05:43:54;;;;;;;2.60;1.40;;;20.50;60.20;;;;;;5062581;28;20502;-70
2023/05/25 05:46:19;;;;;;;2.60;1.05;;;20.50;60.20;;;;;;5071885;28;20404;-70
2023/05/25 05:48:45;;;;;;;2.30;1.10;;;20.50;60.20;;;;;;5072888;28;20047;-69
2023/05/25 05:51:11;;;;;;;3.78;1.13;;;20.50;60.20;;;;;;5071958;28;20037;-69
2023/05/25 05:53:36;;;;;;;2.63;1.00;;;20.50;60.20;;;;;;5072466;28;20040;-69
2023/05/25 05:56:02;;;;;;;4.15;1.48;;;20.50;60.20;;;;;;5070551;28;20480;-70
2023/05/25 05:58:28;;;;;;;4.68;0.95;;;20.50;60.20;;;;;;5072471;28;20044;-69
2023/05/25 06:00:55;;;;;;;2.58;1.00;;;20.50;60.30;;;;;;5072148;28;20537;-70
2023/05/25 06:03:21;;;;;;;3.13;1.20;;;20.60;61.00;;;;;;5071568;28;20095;-70
2023/05/25 06:05:46;;;;;;;3.10;1.20;;;20.60;60.40;;;;;;5072761;28;20041;-69
2023/05/25 06:08:12;;;;;;;3.17;1.42;;;20.60;60.40;;;;;;5072337;28;20468;-70
2023/05/25 06:10:38;;;;;;;5.68;1.30;;;20.60;60.40;;;;;;5072040;28;20048;-70
2023/05/25 06:13:06;;;;;;;3.90;1.27;;;20.60;60.50;;;;;;5072649;28;20041;-69
2023/05/25 06:15:31;;;;;;;3.95;1.48;;;20.60;60.50;;;;;;5072288;28;20048;-70
2023/05/25 06:17:57;;;;;;;3.10;1.27;;;20.60;60.50;;;;;;5071508;28;20090;-70
2023/05/25 06:20:22;;;;;;;3.63;1.23;;;20.60;60.50;;;;;;5071939;28;20089;-70
2023/05/25 06:22:48;;;;;;;2.75;1.02;;;20.60;60.60;;;;;;5071103;28;20135;-70
2023/05/25 06:25:14;;;;;;;3.80;1.23;;;20.70;60.80;;;;;;5071249;28;20377;-71
2023/05/25 06:27:40;;;;;;;3.53;1.00;;;20.70;61.60;;;;;;5072284;28;20136;-70
2023/05/25 06:30:06;;;;;;;2.83;1.20;;;20.70;61.00;;;;;;5071989;28;20135;-71
2023/05/25 06:32:32;;;;;;;3.22;1.23;;;20.70;61.10;;;;;;5070561;28;20071;-71
2023/05/25 06:34:57;;;;;;;3.00;1.15;;;20.70;61.10;;;;;;5070469;28;20064;-71
2023/05/25 06:37:23;;;;;;;3.78;1.02;;;20.70;61.10;;;;;;5070118;28;20040;-74
2023/05/25 06:39:48;;;;;;;3.28;1.13;;;20.70;61.10;;;;;;5071158;28;20045;-77
2023/05/25 06:42:14;;;;;;;3.97;1.33;;;20.70;61.20;;;;;;5070317;28;20044;-76
2023/05/25 06:44:39;;;;;;;4.82;1.23;;;20.70;61.10;;;;;;5072263;28;20062;-72
2023/05/25 06:47:05;;;;;;;3.75;1.23;;;20.70;61.00;;;;;;5071096;28;20128;-70
2023/05/25 06:49:31;;;;;;;3.17;1.10;;;20.70;61.00;;;;;;5077603;28;20071;-73
2023/05/25 06:51:56;;;;;;;5.63;1.25;;;20.70;61.10;;;;;;5060432;28;20052;-67
2023/05/25 06:54:22;;;;;;;6.13;1.63;;;20.70;61.10;;;;;;5077270;28;20049;-68
2023/05/25 06:56:48;;;;;;;4.43;1.30;;;20.70;61.10;;;;;;5078920;28;20041;-68
2023/05/25 06:59:13;;;;;;;4.00;1.33;;;20.70;61.20;;;;;;5077456;28;20079;-68
2023/05/25 07:01:39;;;;;;;4.75;1.20;;;20.70;61.30;;;;;;5077180;28;20052;-68
2023/05/25 07:04:05;;;;;;;5.18;1.35;;;20.70;61.30;;;;;;5077374;28;20044;-68
2023/05/25 07:06:31;;;;;;;2.88;1.20;;;20.70;61.30;;;;;;5078044;28;20151;-68
2023/05/25 07:08:57;;;;;;;3.67;1.10;;;20.70;61.30;;;;;;5078688;28;20123;-67
2023/05/25 07:11:23;;;;;;;3.88;1.20;;;20.70;61.40;;;;;;5078184;28;20124;-68
2023/05/25 07:13:48;;;;;;;3.38;1.15;;;20.70;61.50;;;;;;5076376;28;20072;-67
2023/05/25 07:16:14;;;;;;;5.68;1.40;;;20.70;61.50;;;;;;5078039;28;20045;-68
2023/05/25 07:18:40;;;;;;;3.15;1.13;;;20.70;61.50;;;;;;5078659;28;20033;-69
2023/05/25 07:21:08;;;;;;;4.03;1.20;;;20.70;61.60;;;;;;5075812;28;20572;-74
2023/05/25 07:23:35;;;;;;;4.88;1.15;;;20.80;61.70;;;;;;5078518;28;20082;-71
2023/05/25 07:26:00;;;;;;;4.63;1.00;;;20.80;61.70;;;;;;5078078;28;20036;-70
2023/05/25 07:28:26;;;;;;;3.55;1.42;;;20.80;61.80;;;;;;5077024;28;20052;-67
2023/05/25 07:30:52;;;;;;;3.75;1.33;;;20.80;61.70;;;;;;5078251;28;20048;-65
2023/05/25 07:33:17;;;;;;;5.13;1.42;;;20.80;61.70;;;;;;5078443;28;20136;-65
2023/05/25 07:35:43;;;;;;;3.45;1.40;;;20.80;61.70;;;;;;5077884;28;20051;-66
2023/05/25 07:38:09;;;;;;;7.60;1.40;;;20.80;61.60;;;;;;5077811;28;20080;-66
2023/05/25 07:40:35;;;;;;;5.22;1.48;;;20.80;61.70;;;;;;5089149;28;20090;-68
2023/05/25 07:43:01;;;;;;;4.25;1.25;;;20.80;61.60;;;;;;5097538;28;20039;-67
2023/05/25 07:45:26;;;;;;;5.05;1.10;;;20.80;61.60;;;;;;5098303;28;20487;-67
2023/05/25 07:47:52;;;;;;;5.97;1.40;;;20.80;61.50;;;;;;5093851;28;20087;-68
2023/05/25 07:50:17;;;;;;;4.28;1.40;;;20.80;61.40;;;;;;5076184;28;20090;-69
2023/05/25 07:52:43;;;;;;;4.32;1.45;;;20.80;61.40;;;;;;5075972;28;20044;-68
2023/05/25 07:55:09;;;;;;;3.92;1.30;;;20.80;61.40;;;;;;5086959;28;20090;-69
2023/05/25 07:57:34;;;;;;;5.75;1.25;;;20.80;61.30;;;;;;5083639;28;20547;-69
2023/05/25 08:00:00;;;;;;;4.65;1.25;;;20.80;61.30;;;;;;5074158;28;20125;-69
2023/05/25 08:02:26;;;;;;;3.35;1.50;;;20.90;61.40;;;;;;5059690;28;20080;-69
2023/05/25 08:04:51;;;;;;;6.55;1.40;;;20.90;61.30;;;;;;5053532;28;20036;-68
2023/05/25 08:07:20;;;;;;;4.97;1.23;;;20.90;61.30;;;;;;5054452;28;20045;-69
2023/05/25 08:09:46;;;;;;;6.10;1.35;;;20.90;61.30;;;;;;5054186;28;20041;-68
2023/05/25 08:12:11;;;;;;;8.55;1.70;;;20.90;61.20;;;;;;5055203;28;20037;-69
2023/05/25 08:14:37;;;;;;;4.00;1.35;;;20.80;61.10;;;;;;5073426;28;20054;-68
2023/05/25 08:17:03;;;;;;;7.13;1.40;;;20.80;61.00;;;;;;5072682;28;20033;-68
2023/05/25 08:19:31;;;;;;;2.28;0.82;;;20.80;61.00;;;;;;5074085;28;20057;-69
2023/05/25 08:21:56;;;;;;;3.47;1.40;;;20.80;61.00;;;;;;5074541;28;20087;-68
2023/05/25 08:24:22;;;;;;;5.90;1.30;;;20.80;61.00;;;;;;5073415;28;20044;-68
2023/05/25 08:26:47;;;;;;;4.82;1.25;;;20.80;61.00;;;;;;5074048;28;20135;-68
2023/05/25 08:29:13;;;;;;;4.85;1.63;;;20.80;61.00;;;;;;5072708;28;20075;-69
2023/05/25 08:31:40;;;;;;;4.07;1.33;;;20.80;61.00;;;;;;5062619;28;20052;-68
2023/05/25 08:34:06;;;;;;;4.85;1.30;;;20.80;61.00;;;;;;5053941;28;20052;-69
2023/05/25 08:36:33;;;;;;;6.18;1.50;;;20.70;61.00;;;;;;5054541;28;20120;-68
2023/05/25 08:38:58;;;;;;;7.20;1.60;;;20.70;61.00;;;;;;5071565;28;20189;-68
2023/05/25 08:41:24;;;;;;;5.07;1.58;;;20.70;60.80;;;;;;5073646;28;20500;-68
2023/05/25 08:43:50;;;;;;;3.60;1.30;;;20.70;60.80;;;;;;5070771;28;20041;-68
2023/05/25 08:46:15;;;;;;;4.30;1.35;;;20.70;60.90;;;;;;5056061;28;20051;-68
2023/05/25 08:48:42;;;;;;;7.53;1.80;;;20.70;60.90;;;;;;5072710;28;20120;-69
2023/05/25 08:51:08;;;;;;;5.20;1.58;;;20.70;60.90;;;;;;5074696;28;20040;-69
2023/05/25 08:53:36;;;;;;;5.47;1.30;;;20.70;61.00;;;;;;5092974;28;20487;-68
2023/05/25 08:56:20;;;;;;;6.60;1.45;;;20.70;61.00;;;;;;5094053;28;20048;-69
2023/05/25 08:58:56;;;;;;;8.15;1.42;;;20.70;61.00;;;;;;5077843;28;20048;-69
2023/05/25 09:01:22;;;;;;;6.00;1.70;;;20.70;61.00;;;;;;5087770;28;20056;-70
2023/05/25 09:03:48;;;;;;;3.58;1.20;;;20.70;61.00;;;;;;5062086;28;20489;-68
2023/05/25 09:06:14;;;;;;;4.65;1.40;;;20.70;61.00;;;;;;5092953;28;20052;-69
2023/05/25 09:08:40;;;;;;;4.50;1.20;;;20.70;61.10;;;;;;5092691;28;20036;-69
2023/05/25 09:11:06;;;;;;;3.92;1.50;;;20.70;61.10;;;;;;5092052;28;20104;-69
2023/05/25 09:13:31;;;;;;;5.80;1.50;;;20.70;61.00;;;;;;5074962;28;20044;-69
2023/05/25 09:15:57;;;;;;;4.47;1.35;;;20.70;61.00;;;;;;5093633;28;20036;-69
2023/05/25 09:18:22;;;;;;;4.75;1.30;;;20.70;61.00;;;;;;5093529;28;20052;-69
2023/05/25 09:20:48;;;;;;;6.22;1.70;;;20.70;61.00;;;;;;5092966;28;20441;-69
2023/05/25 09:23:14;;;;;;;4.00;1.40;;;20.70;61.20;;;;;;5091623;28;20052;-69
2023/05/25 09:25:39;;;;;;;4.97;1.30;;;20.60;60.90;;;;;;5092218;28;20078;-69
2023/05/25 09:28:07;;;;;;;4.63;1.33;;;20.70;60.90;;;;;;5092667;28;20152;-69
2023/05/25 09:30:34;;;;;;;5.43;1.40;;;20.60;60.80;;;;;;5092094;28;20044;-69
2023/05/25 09:33:12;;;;;;;6.78;1.40;;;20.60;60.80;;;;;;5076330;28;20048;-69
2023/05/25 09:35:38;;;;;;;4.90;1.30;;;20.60;60.80;;;;;;5072373;28;20041;-77
2023/05/25 09:38:04;;;;;;;6.68;1.35;;;20.60;60.80;;;;;;5072939;28;20456;-70
2023/05/25 09:40:32;;;;;;;4.95;1.73;;;20.60;60.80;;;;;;5089528;28;20111;-68
2023/05/25 09:42:58;;;;;;;4.70;1.50;;;20.60;60.80;;;;;;5091928;28;20055;-68
2023/05/25 09:45:23;;;;;;;5.15;1.50;;;20.60;60.80;;;;;;5092715;28;20789;-69
2023/05/25 09:47:53;;;;;;;3.47;1.30;;;20.60;60.80;;;;;;5091772;28;20048;-70
2023/05/25 09:50:20;;;;;;;2.97;1.10;;;20.60;60.80;;;;;;5074205;28;20047;-68
2023/05/25 09:52:45;;;;;;;6.28;1.77;;;20.70;60.90;;;;;;5092132;28;20040;-69
2023/05/25 09:55:11;;;;;;;6.13;1.50;;;20.70;60.90;;;;;;5074027;28;20089;-69
2023/05/25 09:57:37;;;;;;;5.78;1.60;;;20.70;60.90;;;;;;5093195;28;20480;-69
2023/05/25 10:00:04;;;;;;;5.28;1.40;;;20.70;60.80;;;;;;5091392;28;20047;-69
2023/05/25 10:02:30;;;;;;;7.78;1.40;;;20.70;60.80;;;;;;5091992;28;20524;-68
2023/05/25 10:04:56;;;;;;;6.25;2.10;;;20.80;60.80;;;;;;5073403;28;20093;-69
2023/05/25 10:07:22;;;;;;;4.82;1.48;;;20.80;60.80;;;;;;5070799;28;20098;-69
2023/05/25 10:09:47;;;;;;;7.15;1.60;;;20.80;60.70;;;;;;5070849;28;20044;-69
2023/05/25 10:12:15;;;;;;;4.32;1.48;;;20.80;60.60;;;;;;5054700;28;20060;-69
2023/05/25 10:14:41;;;;;;;5.00;1.60;;;20.80;60.50;;;;;;5054835;28;20473;-70
2023/05/25 10:17:06;;;;;;;7.55;1.95;;;20.80;60.50;;;;;;5053609;28;20040;-70
2023/05/25 10:20:04;;;;;;;6.45;1.60;;;20.80;60.50;;;;;;5071173;28;20040;-72
2023/05/25 10:22:38;;;;;;;7.43;1.90;;;20.80;60.40;;;;;;5058768;28;20060;-66
2023/05/25 10:25:13;;;;;;;5.50;1.70;;;20.80;60.40;;;;;;5070773;28;20041;-67
2023/05/25 10:28:03;;;;;;;5.75;1.85;;;20.80;60.60;;;;;;5052567;28;20106;-68
2023/05/25 10:30:29;;;;;;;7.47;1.42;;;20.80;60.60;;;;;;5050972;28;20052;-68
2023/05/25 10:32:57;;;;;;;5.60;1.70;;;20.90;60.70;;;;;;5068675;28;20041;-68
2023/05/25 10:35:23;;;;;;;;;;;20.90;60.70;;;;;;5072469;28;20036;-67
2023/05/25 10:37:52;;;;;;;6.60;1.60;;;20.80;60.70;;;;;;5090992;28;20018;-70
2023/05/25 10:40:21;;;;;;;8.95;2.00;;;20.90;60.70;;;;;;5091380;28;20044;-68
2023/05/25 10:42:49;;;;;;;9.25;2.13;;;20.90;60.50;;;;;;5092715;28;20044;-68
2023/05/25 10:45:15;;;;;;;6.70;1.73;;;20.90;60.50;;;;;;5091756;28;20044;-68
2023/05/25 10:47:41;;;;;;;8.45;2.13;;;20.90;60.40;;;;;;5076543;28;20048;-68
2023/05/25 10:50:17;;;;;;;10.45;2.17;;;21.00;60.40;;;;;;5070695;28;20064;-68
2023/05/25 10:52:42;;;;;;;7.20;1.88;;;21.00;60.40;;;;;;5070588;28;20121;-68
2023/05/25 10:55:08;;;;;;;8.55;2.38;;;21.00;60.40;;;;;;5072366;28;20124;-69
2023/05/25 10:57:34;;;;;;;9.10;2.10;;;21.00;60.30;;;;;;5072652;28;20036;-69
2023/05/25 11:00:01;;;;;;;9.57;2.53;;;21.10;60.30;;;;;;5070346;28;20056;-66
2023/05/25 11:02:31;;;;;;;10.90;2.38;;;21.10;60.40;;;;;;5072160;28;20044;-66
2023/05/25 11:05:27;;;;;;;13.52;2.70;;;21.10;60.40;;;;;;5065375;28;20037;-66
2023/05/25 11:08:20;;;;;;;9.70;2.00;;;21.10;60.50;;;;;;5070861;28;20056;-60
2023/05/25 11:10:48;;;;;;;10.55;2.40;;;21.10;60.50;;;;;;5067752;28;20396;-65
2023/05/25 11:13:42;;;;;;;11.85;2.50;;;21.10;60.40;;;;;;5069804;28;20044;-65
2023/05/25 11:16:34;;;;;;;15.40;2.90;;;21.20;60.40;;;;;;5069336;28;20049;-65
2023/05/25 11:19:00;;;;;;;16.60;3.20;;;21.20;60.20;;;;;;5078665;28;20057;-65
2023/05/25 11:21:26;;;;;;;16.42;4.35;;;21.20;60.10;;;;;;5064394;28;20048;-66
2023/05/25 11:24:01;;;;;;;17.25;4.43;;;21.20;60.00;;;;;;5069537;28;20083;-65
2023/05/25 11:26:36;;;;;;;15.02;3.53;;;21.20;60.00;;;;;;5070876;28;20053;-65
2023/05/25 11:29:13;;;;;;;17.63;4.05;;;21.20;60.00;;;;;;5070602;28;20047;-63
2023/05/25 11:31:38;;;;;;;15.38;4.13;;;21.20;60.00;;;;;;5069778;28;20123;-65
2023/05/25 11:34:08;;;;;;;19.42;4.20;;;21.20;60.00;;;;;;5070730;28;20127;-64
2023/05/25 11:36:36;;;;;;;16.38;4.05;;;21.20;60.00;;;;;;5074444;28;20048;-65
2023/05/25 11:39:03;;;;;;;15.68;4.10;;;21.20;60.10;;;;;;5075885;28;20094;-64
2023/05/25 11:41:30;;;;;;;16.52;4.53;;;21.20;60.10;;;;;;5074943;28;20036;-64
2023/05/25 11:44:01;;;;;;;13.98;4.18;;;21.20;60.10;;;;;;5074479;28;20535;-65
2023/05/25 11:46:27;;;;;;;14.65;4.22;;;21.20;60.20;;;;;;5074587;28;20067;-64
2023/05/25 11:48:54;;;;;;;14.60;3.83;;;21.20;60.10;;;;;;5073468;28;20074;-64
2023/05/25 11:51:23;;;;;;;16.13;4.03;;;21.20;60.00;;;;;;5075471;28;20475;-64
2023/05/25 11:53:48;;;;;;;17.70;4.40;;;21.20;60.00;;;;;;5075339;28;20403;-64
2023/05/25 11:56:15;;;;;;;12.32;3.60;;;21.20;59.90;;;;;;5074650;28;20472;-65
2023/05/25 11:58:43;;;;;;;12.30;3.83;;;21.20;59.90;;;;;;5075499;28;20052;-65
2023/05/25 12:01:22;;;;;;;16.08;3.90;;;21.20;59.90;;;;;;5075042;28;20040;-64
2023/05/25 12:03:49;;;;;;;16.25;3.75;;;21.30;59.90;;;;;;5074680;28;20045;-64
2023/05/25 12:06:28;;;;;;;14.15;3.70;;;21.30;59.90;;;;;;5075090;28;20048;-65
2023/05/25 12:08:54;;;;;;;14.40;4.40;;;21.30;59.80;;;;;;5073500;28;20044;-64
2023/05/25 12:11:27;;;;;;;17.85;4.30;;;21.30;59.80;;;;;;5075159;28;20045;-64
2023/05/25 12:13:52;;;;;;;16.50;4.50;;;21.30;59.80;;;;;;5073820;28;20381;-65
2023/05/25 12:16:18;;;;;;;14.73;3.72;;;21.30;59.80;;;;;;5074017;28;20503;-65
2023/05/25 12:18:44;;;;;;;15.10;3.90;;;21.30;59.80;;;;;;5075364;28;20388;-65
2023/05/25 12:21:10;;;;;;;13.13;3.65;;;21.30;59.80;;;;;;5075192;28;20480;-65
2023/05/25 12:23:35;;;;;;;13.07;3.90;;;21.30;59.70;;;;;;5056192;28;20043;-65
2023/05/25 12:26:20;;;;;;;14.45;3.60;;;21.30;59.70;;;;;;5073688;28;20044;-64
2023/05/25 12:28:59;;;;;;;11.57;3.75;;;21.30;59.60;;;;;;5075159;28;20052;-64
2023/05/25 12:31:26;;;;;;;9.68;3.58;;;21.30;59.60;;;;;;5073199;28;20049;-64
2023/05/25 12:34:11;;;;;;;13.35;3.72;;;21.40;59.60;;;;;;5074845;28;20044;-64
2023/05/25 12:36:50;;;;;;;11.70;3.13;;;21.40;59.50;;;;;;5056385;28;20413;-65
2023/05/25 12:39:28;;;;;;;10.75;3.60;;;21.40;59.50;;;;;;5061356;28;20041;-65
2023/05/25 12:41:54;;;;;;;14.07;3.58;;;21.40;59.40;;;;;;5054683;28;20048;-65
2023/05/25 12:44:22;;;;;;;10.52;3.40;;;21.40;59.40;;;;;;5053847;28;20037;-65
2023/05/25 12:46:49;;;;;;;13.68;3.60;;;21.40;59.40;;;;;;5053884;28;20048;-64